Time;durP1;ratioP1;P1;durP2;ratioP2;P2;SDS_P1;SDS_P2;PMS_P1;PMS_P2;Temp;Humidity;BMP_temperature;BMP_pressure;BME280_temperature;BME280_humidity;BME280_pressure;Samples;Min_cycle;Max_cycle;Signal;HPM_P1;HPM_P2
2023/10/20 00:01:22;;;;;;;27.60;10.70;;;;;;;8.38;99.32;99745.78;5063707;28;20071;-60
2023/10/20 00:03:53;;;;;;;16.65;5.82;;;;;;;8.47;98.37;99745.69;5075428;28;20133;-61
2023/10/20 00:06:23;;;;;;;23.23;5.78;;;;;;;8.56;97.47;99750.75;5084100;28;20044;-62
2023/10/20 00:08:53;;;;;;;18.00;5.63;;;;;;;8.63;96.76;99734.13;5094874;28;20134;-61
2023/10/20 00:11:25;;;;;;;16.25;3.92;;;;;;;8.61;94.69;99732.41;5063837;28;20127;-62
2023/10/20 00:13:56;;;;;;;19.48;4.38;;;;;;;8.72;93.71;99740.06;5074210;28;20068;-62
2023/10/20 00:16:27;;;;;;;13.70;4.25;;;;;;;8.71;92.45;99730.53;5063666;28;20067;-61
2023/10/20 00:18:57;;;;;;;13.20;5.20;;;;;;;8.74;92.38;99727.88;5074437;28;20498;-62
2023/10/20 00:21:29;;;;;;;17.58;5.32;;;;;;;8.83;92.73;99722.50;5073285;28;20450;-61
2023/10/20 00:24:00;;;;;;;8.05;4.05;;;;;;;8.87;91.31;99716.34;5072844;28;20067;-61
2023/10/20 00:26:32;;;;;;;15.90;4.18;;;;;;;8.90;90.03;99712.84;5062680;28;20123;-61
2023/10/20 00:29:02;;;;;;;11.48;3.75;;;;;;;8.96;89.13;99723.13;5073170;28;20437;-61
2023/10/20 00:31:32;;;;;;;13.27;3.90;;;;;;;9.00;89.70;99699.59;5072435;28;20045;-62
2023/10/20 00:34:03;;;;;;;15.60;4.00;;;;;;;9.09;89.91;99697.72;5073628;28;20040;-60
2023/10/20 00:36:33;;;;;;;13.18;3.47;;;;;;;9.17;89.71;99706.25;5062705;28;20135;-61
2023/10/20 00:39:04;;;;;;;11.88;3.92;;;;;;;9.22;88.70;99705.25;5073798;28;20036;-61
2023/10/20 00:41:36;;;;;;;20.60;3.70;;;;;;;9.31;88.30;99713.78;5083614;28;20070;-61
2023/10/20 00:44:06;;;;;;;14.55;3.75;;;;;;;9.34;87.43;99719.81;5071446;28;20040;-61
2023/10/20 00:46:37;;;;;;;16.20;8.00;;;;;;;9.40;87.27;99718.81;5061961;28;20056;-61
2023/10/20 00:49:09;;;;;;;8.07;3.45;;;;;;;9.45;87.63;99717.81;5072681;28;20369;-60
2023/10/20 00:51:41;;;;;;;11.50;3.78;;;;;;;9.44;86.83;99715.25;5083212;28;20369;-61
2023/10/20 00:54:14;;;;;;;11.80;5.20;;;;;;;9.51;86.24;99727.28;5071989;28;20044;-60
2023/10/20 00:56:47;;;;;;;13.70;3.47;;;;;;;9.54;85.28;99721.16;5073102;28;20044;-61
2023/10/20 00:59:17;;;;;;;14.20;3.75;;;;;;;9.63;85.09;99726.16;5072172;28;20410;-60
2023/10/20 01:01:48;;;;;;;12.63;2.88;;;;;;;9.67;84.43;99727.81;5073483;28;20097;-61
2023/10/20 01:04:19;;;;;;;10.07;2.90;;;;;;;9.71;84.24;99719.06;5083709;28;20066;-60
2023/10/20 01:06:49;;;;;;;12.60;3.15;;;;;;;9.71;82.33;99719.06;5072791;28;20377;-61
2023/10/20 01:09:38;;;;;;;9.48;2.58;;;;;;;9.72;80.83;99710.31;5054587;28;20039;-60
2023/10/20 01:12:10;;;;;;;7.35;2.83;;;;;;;9.75;80.49;99704.19;5064246;28;20054;-61
2023/10/20 01:14:41;;;;;;;12.50;2.45;;;;;;;9.74;79.09;99703.31;5053599;28;20151;-59
2023/10/20 01:17:12;;;;;;;3.78;1.70;;;;;;;9.81;79.49;99701.41;5071528;28;20048;-61
2023/10/20 01:19:44;;;;;;;6.00;2.28;;;;;;;9.84;77.66;99699.63;5083869;28;20043;-60
2023/10/20 01:22:14;;;;;;;7.88;1.83;;;;;;;9.85;76.54;99701.31;5074067;28;20057;-60
2023/10/20 01:24:46;;;;;;;8.77;3.22;;;;;;;9.93;77.65;99686.38;5084032;28;20423;-60
2023/10/20 01:27:16;;;;;;;6.85;2.00;;;;;;;9.99;76.90;99692.34;5072871;28;20117;-59
2023/10/20 01:29:47;;;;;;;7.50;1.83;;;;;;;10.04;76.31;99698.31;5064677;28;20151;-60
2023/10/20 01:32:18;;;;;;;5.80;2.03;;;;;;;10.03;75.77;99692.22;5053184;28;20052;-60
2023/10/20 01:34:48;;;;;;;10.27;2.30;;;;;;;10.03;75.87;99696.56;5083001;28;20134;-59
2023/10/20 01:37:19;;;;;;;7.10;1.80;;;;;;;10.05;75.50;99692.19;5073272;28;20047;-60
2023/10/20 01:39:50;;;;;;;13.52;2.22;;;;;;;10.00;74.41;99688.81;5084054;28;20292;-62
2023/10/20 01:42:21;;;;;;;3.90;1.17;;;;;;;10.07;74.70;99696.47;5073012;28;20043;-61
2023/10/20 01:44:51;;;;;;;4.65;1.40;;;;;;;10.08;71.01;99692.09;5083314;28;20047;-60
2023/10/20 01:47:21;;;;;;;3.20;1.50;;;;;;;10.04;70.08;99695.69;5073228;28;20044;-62
2023/10/20 01:49:52;;;;;;;3.33;1.48;;;;;;;10.06;70.04;99686.06;5081122;28;20119;-60
2023/10/20 01:52:22;;;;;;;5.65;1.40;;;;;;;10.14;70.03;99681.53;5071393;28;20559;-60
2023/10/20 01:54:54;;;;;;;2.50;1.25;;;;;;;10.20;69.22;99676.16;5083792;28;20040;-60
2023/10/20 01:57:25;;;;;;;3.67;0.90;;;;;;;10.27;69.36;99671.66;5075921;28;20061;-60
2023/10/20 01:59:55;;;;;;;6.30;1.40;;;;;;;10.29;67.88;99668.13;5087404;28;20043;-60
2023/10/20 02:02:25;;;;;;;8.10;1.17;;;;;;;10.28;66.77;99671.66;5076999;28;20052;-60
2023/10/20 02:04:56;;;;;;;3.47;1.08;;;;;;;10.31;67.03;99653.28;5080016;28;20048;-60
2023/10/20 02:07:26;;;;;;;4.22;1.15;;;;;;;10.29;67.03;99660.31;5066939;28;20392;-60
2023/10/20 02:09:59;;;;;;;4.32;1.20;;;;;;;10.31;66.96;99653.28;5073017;28;20735;-61
2023/10/20 02:12:30;;;;;;;5.70;2.42;;;;;;;10.34;66.11;99657.56;5079668;28;20053;-61
2023/10/20 02:15:00;;;;;;;5.32;1.75;;;;;;;10.31;63.59;99658.50;5084726;28;20228;-61
2023/10/20 02:17:30;;;;;;;4.22;0.93;;;;;;;10.24;63.58;99662.13;5080238;28;20158;-60
2023/10/20 02:20:01;;;;;;;7.28;1.38;;;;;;;10.26;65.62;99644.69;5091589;28;20040;-60
2023/10/20 02:22:31;;;;;;;7.38;1.63;;;;;;;10.27;65.33;99651.59;5063043;28;20104;-61
2023/10/20 02:25:03;;;;;;;6.25;1.70;;;;;;;10.17;65.76;99647.50;5072328;28;20053;-62
2023/10/20 02:27:33;;;;;;;4.38;1.20;;;;;;;10.11;66.27;99655.50;5062526;28;20048;-62
2023/10/20 02:30:04;;;;;;;5.22;1.40;;;;;;;10.12;67.31;99652.00;5071453;28;20052;-62
2023/10/20 02:32:35;;;;;;;2.70;0.93;;;;;;;10.10;67.30;99643.34;5062417;28;20370;-62
2023/10/20 02:35:06;;;;;;;6.80;1.25;;;;;;;10.10;66.89;99653.78;5072285;28;20052;-62
2023/10/20 02:37:36;;;;;;;3.53;1.20;;;;;;;10.12;66.54;99646.78;5061674;28;20048;-63
2023/10/20 02:40:10;;;;;;;6.18;1.05;;;;;;;10.07;66.38;99640.81;5072806;28;20055;-61
2023/10/20 02:42:43;;;;;;;7.32;0.98;;;;;;;10.04;65.48;99648.72;5063243;28;20058;-61
2023/10/20 02:45:14;;;;;;;4.90;1.10;;;;;;;9.99;65.36;99640.13;5065108;28;20130;-61
2023/10/20 02:47:44;;;;;;;4.57;1.17;;;;;;;9.97;66.20;99641.91;5073305;28;20042;-62
2023/10/20 02:50:15;;;;;;;7.38;1.20;;;;;;;9.90;64.62;99630.75;5062983;28;20059;-60
2023/10/20 02:52:46;;;;;;;6.55;1.25;;;;;;;9.77;63.45;99614.53;5072786;28;20043;-61
2023/10/20 02:55:18;;;;;;;4.97;1.40;;;;;;;9.75;63.32;99626.75;5062639;28;20050;-62
2023/10/20 02:57:48;;;;;;;4.80;0.95;;;;;;;9.77;64.00;99619.75;5072718;28;20054;-61
2023/10/20 03:00:21;;;;;;;4.22;1.05;;;;;;;9.82;65.23;99602.25;5062093;28;20459;-62
2023/10/20 03:02:53;;;;;;;6.50;1.33;;;;;;;9.86;65.86;99606.50;5073089;28;20433;-62
2023/10/20 03:05:23;;;;;;;2.60;1.50;;;;;;;9.81;65.18;99600.53;5061749;28;20066;-61
2023/10/20 03:07:54;;;;;;;9.20;1.25;;;;;;;9.83;65.52;99593.50;5071984;28;20109;-61
2023/10/20 03:10:26;;;;;;;3.90;1.00;;;;;;;9.84;64.96;99603.06;5060110;28;20415;-60
2023/10/20 03:12:57;;;;;;;2.65;1.05;;;;;;;9.75;62.77;99611.09;5072080;28;20143;-61
2023/10/20 03:15:27;;;;;;;2.53;1.10;;;;;;;9.72;63.57;99596.38;5061988;28;20043;-61
2023/10/20 03:17:57;;;;;;;3.63;1.27;;;;;;;9.71;63.55;99599.03;5072411;28;20039;-60
2023/10/20 03:20:30;;;;;;;14.25;1.55;;;;;;;9.63;62.09;99606.16;5061745;28;20048;-60
2023/10/20 03:23:00;;;;;;;6.70;1.35;;;;;;;9.55;63.02;99587.25;5071722;28;20076;-62
2023/10/20 03:25:33;;;;;;;11.73;1.13;;;;;;;9.59;63.34;99594.09;5062272;28;20114;-61
2023/10/20 03:28:05;;;;;;;3.92;1.20;;;;;;;9.59;62.36;99594.09;5072958;28;20683;-60
2023/10/20 03:30:39;;;;;;;3.50;1.10;;;;;;;9.53;62.61;99581.19;5061962;28;20152;-61
2023/10/20 03:33:11;;;;;;;3.30;1.17;;;;;;;9.71;64.22;99599.03;5071853;28;20047;-61
2023/10/20 03:35:42;;;;;;;6.30;1.20;;;;;;;9.76;64.02;99581.53;5061418;28;20069;-62
2023/10/20 03:38:12;;;;;;;3.45;1.00;;;;;;;9.74;63.07;99578.09;5070311;28;20056;-61
2023/10/20 03:40:46;;;;;;;6.78;1.17;;;;;;;9.62;62.29;99574.00;5071016;28;20047;-62
2023/10/20 03:43:16;;;;;;;5.20;1.13;;;;;;;9.61;63.54;99571.44;5062113;28;20070;-62
2023/10/20 03:45:51;;;;;;;4.35;0.95;;;;;;;9.63;65.05;99570.50;5073305;28;20060;-61
2023/10/20 03:48:23;;;;;;;2.75;1.05;;;;;;;9.63;64.07;99580.09;5060808;28;20035;-61
2023/10/20 03:50:54;;;;;;;5.40;1.20;;;;;;;9.61;63.81;99582.75;5070985;28;20478;-61
2023/10/20 03:53:27;;;;;;;4.55;1.35;;;;;;;9.44;63.23;99575.31;5061062;28;20047;-62
2023/10/20 03:56:04;;;;;;;4.05;1.23;;;;;;;9.39;63.63;99582.38;5072707;28;20046;-62
2023/10/20 03:58:35;;;;;;;11.23;1.52;;;;;;;9.12;64.15;99525.63;5063499;28;20546;-61
2023/10/20 04:01:06;;;;;;;3.80;1.27;;;;;;;9.30;64.23;99561.72;5071329;28;20389;-60
2023/10/20 04:03:37;;;;;;;4.38;1.35;;;;;;;9.30;63.46;99566.94;5059367;28;20052;-61
2023/10/20 04:06:09;;;;;;;7.53;1.33;;;;;;;8.99;63.35;99531.13;5071127;28;20040;-61
2023/10/20 04:08:39;;;;;;;7.20;1.15;;;;;;;9.20;64.44;99570.63;5059642;28;20056;-60
2023/10/20 04:11:12;;;;;;;4.38;1.33;;;;;;;9.16;63.36;99569.84;5071361;28;20035;-61
2023/10/20 04:13:43;;;;;;;3.78;1.10;;;;;;;9.18;63.30;99561.97;5060910;28;20051;-62
2023/10/20 04:16:14;;;;;;;9.95;1.90;;;;;;;9.17;63.28;99561.13;5061944;28;20147;-60
2023/10/20 04:18:46;;;;;;;4.07;1.30;;;;;;;9.02;63.16;99558.84;5072582;28;20059;-60
2023/10/20 04:21:17;;;;;;;4.00;1.20;;;;;;;9.01;62.33;99565.81;5060143;28;20036;-61
2023/10/20 04:23:47;;;;;;;5.00;1.67;;;;;;;8.88;61.40;99569.56;5070767;28;20046;-61
2023/10/20 04:26:21;;;;;;;4.00;1.50;;;;;;;8.57;61.51;99528.50;5059487;28;20048;-60
2023/10/20 04:29:07;;;;;;;5.72;1.25;;;;;;;8.73;62.42;99575.09;5070689;28;20469;-61
2023/10/20 04:54:19;;;;;;;3.40;1.48;;;;;;;8.78;64.37;99578.44;5068396;28;20355;-61
2023/10/20 04:59:44;;;;;;;6.20;1.40;;;;;;;8.79;65.35;99575.81;5056573;28;20040;-61
2023/10/20 05:02:25;;;;;;;12.45;1.98;;;;;;;8.77;65.06;99568.94;5058995;28;20194;-61
2023/10/20 05:04:55;;;;;;;5.25;1.67;;;;;;;8.72;64.59;99561.19;5068796;28;20043;-61
2023/10/20 05:07:28;;;;;;;6.80;1.23;;;;;;;8.77;65.49;99555.91;5061281;28;20481;-60
2023/10/20 05:09:59;;;;;;;7.63;1.55;;;;;;;8.82;67.42;99548.84;5073604;28;20040;-62
2023/10/20 05:12:30;;;;;;;8.88;1.73;;;;;;;8.86;67.33;99550.47;5061397;28;20438;-62
2023/10/20 05:15:01;;;;;;;5.93;1.40;;;;;;;8.83;67.43;99550.56;5069610;28;20063;-62
2023/10/20 05:17:34;;;;;;;6.93;1.65;;;;;;;8.82;66.72;99530.63;5060005;28;20599;-62
2023/10/20 05:20:05;;;;;;;2.90;1.10;;;;;;;8.73;63.36;99533.41;5069293;28;20354;-62
2023/10/20 05:22:36;;;;;;;53.45;18.00;;;;;;;8.64;62.42;99530.09;5058542;28;20438;-61
2023/10/20 05:25:07;;;;;;;190.95;85.88;;;;;;;8.59;63.14;99526.75;5069569;28;20059;-63
2023/10/20 05:27:37;;;;;;;186.02;89.93;;;;;;;8.59;63.69;99531.94;5060445;28;20582;-62
2023/10/20 05:30:10;;;;;;;100.65;49.00;;;;;;;8.58;64.59;99527.59;5068276;28;20047;-62
2023/10/20 05:32:40;;;;;;;66.40;29.33;;;;;;;8.60;65.69;99525.84;5059655;28;20042;-62
2023/10/20 05:35:11;;;;;;;52.33;24.40;;;;;;;8.59;67.42;99521.53;5069617;28;20291;-63
2023/10/20 05:37:41;;;;;;;20.83;10.95;;;;;;;8.59;66.93;99526.75;5059078;28;20419;-61
2023/10/20 05:40:13;;;;;;;20.77;6.50;;;;;;;8.60;66.97;99528.44;5067896;28;20047;-61
2023/10/20 05:42:43;;;;;;;22.30;6.30;;;;;;;8.52;66.28;99513.88;5069986;28;20093;-62
2023/10/20 05:45:20;;;;;;;14.48;5.13;;;;;;;8.59;68.83;99524.13;5058625;28;20036;-62
2023/10/20 05:47:50;;;;;;;6.70;2.10;;;;;;;8.59;70.83;99531.94;5068992;28;20044;-61
2023/10/20 05:50:22;;;;;;;7.88;1.80;;;;;;;8.58;70.96;99529.38;5057657;28;20055;-62
2023/10/20 05:52:53;;;;;;;5.60;1.90;;;;;;;8.58;71.81;99522.41;5070439;28;20044;-62
2023/10/20 05:55:24;;;;;;;7.05;1.88;;;;;;;8.57;72.02;99528.50;5057195;28;20051;-62
2023/10/20 05:57:54;;;;;;;13.50;2.20;;;;;;;8.51;71.02;99523.44;5071276;28;20134;-62
2023/10/20 06:00:26;;;;;;;5.28;1.70;;;;;;;8.40;70.78;99509.75;5058681;28;20064;-60
2023/10/20 06:02:57;;;;;;;5.45;1.42;;;;;;;8.46;70.61;99514.84;5069172;28;20108;-63
2023/10/20 06:05:30;;;;;;;3.28;1.60;;;;;;;8.46;72.88;99519.19;5059093;28;20076;-63
2023/10/20 06:08:01;;;;;;;5.68;1.67;;;;;;;8.44;74.35;99511.44;5069017;28;20047;-62
2023/10/20 06:10:32;;;;;;;5.60;1.90;;;;;;;8.43;75.39;99504.47;5058444;28;20053;-62
2023/10/20 06:13:03;;;;;;;7.93;1.80;;;;;;;8.45;75.36;99507.06;5068276;28;20054;-63
2023/10/20 06:15:37;;;;;;;5.03;1.60;;;;;;;8.42;75.04;99492.38;5061094;28;20055;-62
2023/10/20 06:18:08;;;;;;;3.60;1.48;;;;;;;8.36;75.58;99498.53;5066275;28;20051;-62
2023/10/20 06:20:53;;;;;;;11.30;1.60;;;;;;;8.33;76.15;99498.56;5069823;28;20055;-63
2023/10/20 06:23:24;;;;;;;5.78;1.50;;;;;;;8.19;76.58;99485.84;5060372;28;20067;-62
2023/10/20 06:25:54;;;;;;;5.40;2.22;;;;;;;8.02;77.44;99487.91;5069630;28;20603;-62
2023/10/20 06:28:25;;;;;;;6.15;2.03;;;;;;;7.92;78.72;99481.16;5058780;28;20130;-62
2023/10/20 06:31:00;;;;;;;6.60;2.20;;;;;;;7.79;80.14;99470.09;5070452;28;20051;-62
2023/10/20 06:33:34;;;;;;;3.88;1.70;;;;;;;7.73;81.37;99470.19;5060103;28;20421;-62
2023/10/20 06:36:10;;;;;;;3.83;1.45;;;;;;;7.63;83.01;99458.25;5069790;28;20107;-63
2023/10/20 06:38:45;;;;;;;5.68;1.75;;;;;;;7.55;84.38;99455.78;5062165;28;20108;-62
2023/10/20 06:41:15;;;;;;;4.78;1.95;;;;;;;7.52;86.32;99451.50;5062403;28;20053;-64
2023/10/20 06:43:46;;;;;;;3.83;1.60;;;;;;;7.49;87.19;99446.34;5072790;28;20043;-62
2023/10/20 06:46:21;;;;;;;3.90;1.52;;;;;;;7.51;87.95;99439.38;5062175;28;20704;-62
2023/10/20 06:48:52;;;;;;;3.83;1.63;;;;;;;7.47;88.25;99436.88;5072706;28;20063;-62
2023/10/20 06:51:23;;;;;;;5.47;1.70;;;;;;;7.44;87.58;99442.09;5061187;28;20131;-62
2023/10/20 06:53:54;;;;;;;3.92;1.30;;;;;;;7.38;85.29;99439.59;5073414;28;20144;-63
2023/10/20 06:56:24;;;;;;;2.70;1.30;;;;;;;7.27;84.48;99426.81;5062071;28;20089;-63
2023/10/20 06:58:57;;;;;;;2.65;1.10;;;;;;;7.20;82.19;99428.63;5073559;28;20075;-62
2023/10/20 07:01:29;;;;;;;3.33;1.10;;;;;;;7.19;81.24;99426.94;5063776;28;20051;-63
2023/10/20 07:03:59;;;;;;;3.88;1.15;;;;;;;7.17;80.17;99420.88;5074334;28;20636;-60
2023/10/20 07:06:30;;;;;;;2.53;1.10;;;;;;;7.15;79.13;99414.84;5062299;28;20135;-64
2023/10/20 07:09:00;;;;;;;7.65;1.30;;;;;;;7.02;77.67;99402.94;5073640;28;20126;-62
2023/10/20 07:11:30;;;;;;;6.40;1.77;;;;;;;6.98;77.59;99401.28;5061517;28;20032;-63
2023/10/20 07:14:01;;;;;;;4.30;1.30;;;;;;;6.97;76.99;99395.22;5072258;28;20079;-63
2023/10/20 07:16:33;;;;;;;2.85;1.10;;;;;;;6.88;77.05;99391.03;5063170;28;20068;-61
2023/10/20 07:19:04;;;;;;;9.00;1.00;;;;;;;6.86;76.53;99395.41;5074160;28;20375;-63
2023/10/20 07:21:35;;;;;;;3.05;1.00;;;;;;;6.89;76.90;99397.94;5062325;28;20655;-61
2023/10/20 07:24:06;;;;;;;2.90;0.95;;;;;;;6.90;77.03;99404.84;5073133;28;20048;-63
2023/10/20 07:26:37;;;;;;;3.97;1.48;;;;;;;6.93;76.72;99390.09;5060764;28;20101;-62
2023/10/20 07:29:07;;;;;;;3.83;1.55;;;;;;;6.96;77.09;99397.84;5070584;28;20389;-63
2023/10/20 07:31:40;;;;;;;4.13;1.67;;;;;;;6.98;77.86;99406.47;5062853;28;20051;-63
2023/10/20 07:34:10;;;;;;;3.45;1.17;;;;;;;7.00;80.25;99404.72;5071286;28;20571;-63
2023/10/20 07:36:41;;;;;;;5.47;1.58;;;;;;;7.00;80.34;99404.72;5061062;28;20036;-63
2023/10/20 07:39:16;;;;;;;5.47;1.63;;;;;;;6.96;78.70;99405.63;5068690;28;20510;-62
2023/10/20 07:41:47;;;;;;;4.15;1.33;;;;;;;6.97;77.43;99415.16;5070202;28;20445;-63
2023/10/20 07:44:18;;;;;;;6.03;1.60;;;;;;;6.84;77.66;99394.56;5060013;28;20486;-63
2023/10/20 07:46:50;;;;;;;3.80;1.35;;;;;;;6.91;78.04;99411.78;5112502;28;20465;-64
2023/10/20 07:49:21;;;;;;;2.20;1.33;;;;;;;6.84;78.30;99410.16;5083472;28;20101;-64
2023/10/20 07:51:52;;;;;;;9.35;1.33;;;;;;;6.79;78.79;99411.94;5079662;28;20046;-64
2023/10/20 07:54:22;;;;;;;3.63;1.52;;;;;;;6.76;79.93;99417.16;5073416;28;20130;-63
2023/10/20 07:56:52;;;;;;;3.80;1.67;;;;;;;6.69;79.60;99416.41;5083000;28;20462;-64
2023/10/20 07:59:23;;;;;;;9.38;2.03;;;;;;;6.67;79.51;99402.59;5067647;28;20047;-63
2023/10/20 08:01:55;;;;;;;8.43;1.75;;;;;;;6.68;78.17;99404.28;5074746;28;20429;-64
2023/10/20 08:04:26;;;;;;;7.05;1.70;;;;;;;6.67;77.43;99401.75;5084352;28;20048;-64
2023/10/20 08:06:59;;;;;;;7.18;1.80;;;;;;;6.63;77.94;99392.28;5094620;28;20044;-64
2023/10/20 08:09:30;;;;;;;4.80;2.03;;;;;;;6.54;78.88;99380.28;5105171;28;20047;-63
2023/10/20 08:12:01;;;;;;;7.78;2.80;;;;;;;6.57;78.09;99405.34;5114209;28;20043;-64
2023/10/20 08:14:33;;;;;;;7.13;2.83;;;;;;;6.51;78.83;99395.03;5115663;28;20071;-64
2023/10/20 08:17:07;;;;;;;6.13;2.78;;;;;;;6.30;79.26;99391.84;5108088;28;20080;-64
2023/10/20 08:19:38;;;;;;;6.03;2.30;;;;;;;6.20;80.15;99416.19;5063538;28;20052;-64
2023/10/20 08:22:09;;;;;;;7.82;2.30;;;;;;;6.16;81.22;99404.13;5080259;28;20409;-64
2023/10/20 08:24:40;;;;;;;4.75;1.90;;;;;;;6.12;81.66;99412.84;5072075;28;20052;-64
2023/10/20 08:27:10;;;;;;;5.25;2.10;;;;;;;6.07;81.55;99414.63;5083500;28;20139;-64
2023/10/20 08:29:40;;;;;;;8.48;2.80;;;;;;;6.02;82.18;99418.13;5071358;28;20050;-64
2023/10/20 08:32:12;;;;;;;4.65;1.65;;;;;;;5.97;82.26;99419.91;5080451;28;20040;-64
2023/10/20 08:34:43;;;;;;;7.22;2.17;;;;;;;5.92;83.44;99416.50;5072633;28;20520;-64
2023/10/20 08:37:13;;;;;;;5.50;1.85;;;;;;;5.88;84.44;99429.50;5080380;28;20048;-64
2023/10/20 08:39:44;;;;;;;4.80;2.30;;;;;;;5.84;83.44;99426.06;5093369;28;20039;-64
2023/10/20 08:42:18;;;;;;;6.30;1.95;;;;;;;5.79;83.92;99420.06;5082848;28;20039;-63
2023/10/20 08:44:49;;;;;;;8.00;2.03;;;;;;;5.54;85.10;99389.25;5092372;28;20129;-63
2023/10/20 08:47:23;;;;;;;13.52;3.10;;;;;;;5.74;84.54;99417.56;5104276;28;20036;-64
2023/10/20 08:49:55;;;;;;;3.17;1.55;;;;;;;5.73;84.28;99414.97;5114531;28;20043;-64
2023/10/20 08:52:26;;;;;;;6.22;3.00;;;;;;;5.71;83.49;99420.16;5114064;28;20054;-64
2023/10/20 08:54:57;;;;;;;19.60;9.57;;;;;;;5.71;82.54;99411.53;5114677;28;20053;-65
2023/10/20 08:57:29;;;;;;;33.80;15.75;;;;;;;5.67;81.76;99399.47;5114889;28;20039;-65
2023/10/20 08:59:59;;;;;;;18.00;11.70;;;;;;;5.62;81.16;99382.25;5078115;28;20127;-63
2023/10/20 09:02:39;;;;;;;29.88;16.88;;;;;;;5.57;80.55;99386.63;5062401;28;20424;-64
2023/10/20 09:05:12;;;;;;;11.68;6.85;;;;;;;5.52;80.69;99378.03;5072397;28;20040;-64
2023/10/20 09:07:52;;;;;;;13.80;7.70;;;;;;;5.27;80.82;99342.88;5062095;28;20097;-65
2023/10/20 09:10:23;;;;;;;11.75;4.53;;;;;;;5.48;81.06;99367.72;5093583;28;20048;-65
2023/10/20 09:12:53;;;;;;;7.93;2.80;;;;;;;5.43;81.23;99359.97;5093983;28;20055;-64
2023/10/20 09:15:24;;;;;;;6.07;2.75;;;;;;;5.43;80.86;99365.16;5094359;28;20127;-64
2023/10/20 09:17:56;;;;;;;10.82;4.40;;;;;;;5.45;81.05;99358.22;5082938;28;20036;-64
2023/10/20 09:20:29;;;;;;;8.27;3.60;;;;;;;5.45;81.26;99353.06;5062197;28;20066;-64
2023/10/20 09:22:59;;;;;;;11.82;4.72;;;;;;;5.44;81.75;99346.13;5072916;28;20044;-64
2023/10/20 09:25:30;;;;;;;9.07;4.45;;;;;;;5.43;82.25;99349.63;5063137;28;20044;-63
2023/10/20 09:28:01;;;;;;;9.82;3.40;;;;;;;5.43;82.50;99359.13;5094539;28;20051;-63
2023/10/20 09:30:33;;;;;;;11.13;3.75;;;;;;;5.45;82.58;99368.59;5093405;28;20546;-64
2023/10/20 09:33:06;;;;;;;8.65;2.65;;;;;;;5.45;82.69;99349.59;5093571;28;20363;-64
2023/10/20 09:35:40;;;;;;;6.38;2.85;;;;;;;5.40;83.57;99349.66;5094079;28;20048;-63
2023/10/20 09:38:12;;;;;;;6.97;2.30;;;;;;;5.38;84.13;99357.44;5093366;28;20076;-64
2023/10/20 09:40:45;;;;;;;6.22;2.10;;;;;;;5.30;84.72;99353.22;5093586;28;20036;-63
2023/10/20 09:43:24;;;;;;;7.35;2.58;;;;;;;5.33;85.26;99358.34;5093945;28;20040;-64
2023/10/20 09:46:04;;;;;;;5.70;2.58;;;;;;;5.27;85.10;99348.06;5105107;28;20458;-65
2023/10/20 09:48:39;;;;;;;8.57;2.85;;;;;;;5.30;85.03;99363.56;5091422;28;20051;-64
2023/10/20 09:51:11;;;;;;;6.85;2.50;;;;;;;5.27;84.50;99371.38;5071387;28;20096;-63
2023/10/20 09:53:41;;;;;;;8.18;2.67;;;;;;;5.29;84.75;99372.19;5077698;28;20058;-63
2023/10/20 09:56:14;;;;;;;15.38;3.15;;;;;;;5.35;84.91;99377.34;5080067;28;20032;-64
2023/10/20 09:58:44;;;;;;;14.63;3.53;;;;;;;5.42;86.10;99379.00;5092428;28;20362;-63
2023/10/20 10:01:16;;;;;;;6.75;3.03;;;;;;;5.28;86.22;99354.94;5074754;28;20043;-63
2023/10/20 10:04:03;;;;;;;9.48;2.80;;;;;;;5.50;85.63;99382.34;5076226;28;20039;-63
2023/10/20 10:06:38;;;;;;;3.65;1.90;;;;;;;5.43;84.62;99369.47;5064722;28;20078;-62
2023/10/20 10:09:10;;;;;;;5.45;2.28;;;;;;;5.34;84.52;99370.41;5067807;28;20051;-62
2023/10/20 10:11:43;;;;;;;4.97;1.92;;;;;;;4.43;84.39;99228.00;5061246;28;20052;-61
2023/10/20 10:14:20;;;;;;;5.75;2.55;;;;;;;5.30;84.54;99373.94;5064336;28;20405;-63
2023/10/20 10:16:54;;;;;;;5.80;2.00;;;;;;;5.37;85.11;99375.59;5074974;28;20047;-62
2023/10/20 10:19:28;;;;;;;4.97;2.05;;;;;;;5.31;84.09;99355.75;5063291;28;20556;-61
2023/10/20 10:22:04;;;;;;;7.70;2.83;;;;;;;5.32;83.53;99341.09;5073579;28;20046;-63
2023/10/20 10:24:39;;;;;;;3.10;1.85;;;;;;;5.40;82.08;99347.91;5062843;28;20076;-61
2023/10/20 10:27:13;;;;;;;3.58;1.38;;;;;;;5.34;82.47;99344.50;5072953;28;20142;-63
2023/10/20 10:29:53;;;;;;;4.07;1.63;;;;;;;5.23;82.73;99349.81;5062991;28;20167;-63
2023/10/20 10:32:26;;;;;;;5.10;1.98;;;;;;;5.22;82.87;99350.69;5062019;28;20506;-63
2023/10/20 10:34:59;;;;;;;4.97;3.35;;;;;;;5.25;82.71;99361.00;5072964;28;20042;-63
2023/10/20 10:37:34;;;;;;;8.07;3.80;;;;;;;5.32;82.24;99361.81;5063597;28;20411;-63
2023/10/20 10:40:10;;;;;;;5.35;2.80;;;;;;;5.42;82.87;99363.44;5072551;28;20052;-62
2023/10/20 10:42:42;;;;;;;2.55;1.83;;;;;;;5.39;83.28;99368.63;5061784;28;20062;-62
2023/10/20 10:45:21;;;;;;;5.65;2.28;;;;;;;5.34;83.46;99365.22;5065229;28;20055;-61
2023/10/20 10:47:52;;;;;;;7.25;2.53;;;;;;;4.99;83.51;99327.56;5071627;28;20061;-63
2023/10/20 10:50:24;;;;;;;5.78;2.55;;;;;;;5.27;84.39;99359.28;5063331;28;20136;-62
2023/10/20 10:52:54;;;;;;;4.68;2.30;;;;;;;5.29;83.56;99364.41;5073401;28;20048;-62
2023/10/20 10:55:25;;;;;;;5.55;2.17;;;;;;;5.34;82.88;99349.69;5061945;28;20138;-62
2023/10/20 10:57:56;;;;;;;4.28;2.33;;;;;;;5.34;82.65;99360.06;5073350;28;20067;-62
2023/10/20 11:00:27;;;;;;;15.25;2.50;;;;;;;5.33;82.54;99363.53;5062016;28;20071;-62
2023/10/20 11:02:59;;;;;;;8.60;3.88;;;;;;;5.26;82.61;99354.09;5071672;28;20052;-62
2023/10/20 11:05:31;;;;;;;6.03;3.05;;;;;;;5.13;83.04;99338.66;5062014;28;20105;-62
2023/10/20 11:08:04;;;;;;;7.28;3.00;;;;;;;4.82;83.46;99293.19;5073483;28;20075;-61
2023/10/20 11:10:37;;;;;;;5.95;3.10;;;;;;;5.15;84.46;99344.69;5062706;28;20139;-63
2023/10/20 11:13:08;;;;;;;6.40;2.72;;;;;;;5.26;85.18;99346.31;5073233;28;20040;-63
2023/10/20 11:15:41;;;;;;;9.65;3.17;;;;;;;5.32;85.34;99348.88;5061187;28;20437;-62
2023/10/20 11:18:12;;;;;;;7.63;3.83;;;;;;;5.07;85.03;99294.72;5072320;28;20040;-62
2023/10/20 11:20:45;;;;;;;5.90;2.85;;;;;;;5.29;85.24;99339.41;5062812;28;20489;-63
2023/10/20 11:23:19;;;;;;;7.93;3.10;;;;;;;5.28;86.25;99350.63;5059435;28;20048;-62
2023/10/20 11:25:50;;;;;;;6.82;2.80;;;;;;;5.30;85.94;99348.03;5072345;28;20048;-62
2023/10/20 11:28:21;;;;;;;7.50;2.50;;;;;;;5.23;85.57;99351.53;5060903;28;20044;-62
2023/10/20 11:30:53;;;;;;;6.30;2.10;;;;;;;5.17;85.86;99348.13;5072017;28;20040;-63
2023/10/20 11:33:23;;;;;;;4.85;2.00;;;;;;;5.18;85.23;99339.47;5060347;28;20043;-62
2023/10/20 11:35:59;;;;;;;5.03;2.03;;;;;;;5.13;84.32;99345.59;5071895;28;20055;-62
2023/10/20 11:38:30;;;;;;;5.45;2.63;;;;;;;5.01;83.66;99341.38;5060988;28;20040;-63
2023/10/20 11:41:00;;;;;;;5.95;2.30;;;;;;;5.06;83.64;99355.13;5071772;28;20062;-62
2023/10/20 11:43:30;;;;;;;8.38;2.28;;;;;;;5.06;84.12;99357.72;5061513;28;20048;-62
2023/10/20 11:46:01;;;;;;;5.00;2.38;;;;;;;5.03;83.94;99344.81;5071061;28;20052;-62
2023/10/20 11:48:31;;;;;;;7.07;2.70;;;;;;;5.05;84.91;99343.06;5061154;28;21190;-60
2023/10/20 11:51:04;;;;;;;8.38;2.63;;;;;;;5.10;84.95;99341.28;5084412;28;20051;-61
2023/10/20 11:53:34;;;;;;;4.53;2.15;;;;;;;5.05;85.64;99343.06;5074063;28;20130;-61
2023/10/20 11:56:05;;;;;;;6.70;2.50;;;;;;;5.00;85.06;99344.84;5084593;28;20055;-61
2023/10/20 11:58:35;;;;;;;8.02;1.95;;;;;;;4.93;84.72;99332.81;5073554;28;20048;-60
2023/10/20 12:01:06;;;;;;;5.45;2.15;;;;;;;4.95;84.76;99346.59;5083767;28;20493;-60
2023/10/20 12:03:36;;;;;;;7.60;2.28;;;;;;;4.95;84.71;99337.09;5073366;28;20055;-62
2023/10/20 12:06:09;;;;;;;6.68;2.15;;;;;;;4.92;84.51;99341.47;5084557;28;20108;-61
2023/10/20 12:08:41;;;;;;;6.68;2.20;;;;;;;4.93;85.03;99338.00;5073639;28;20051;-61
2023/10/20 12:11:11;;;;;;;7.78;2.75;;;;;;;4.92;85.64;99331.09;5083840;28;20464;-60
2023/10/20 12:13:46;;;;;;;3.67;2.10;;;;;;;4.92;85.86;99346.63;5084280;28;20157;-60
2023/10/20 12:16:18;;;;;;;7.50;2.88;;;;;;;4.87;86.12;99338.06;5075249;28;20070;-62
2023/10/20 12:18:48;;;;;;;5.47;2.22;;;;;;;4.90;87.35;99332.84;5087580;28;20194;-62
2023/10/20 12:21:20;;;;;;;4.97;2.00;;;;;;;4.82;87.17;99324.25;5078885;28;20036;-62
2023/10/20 12:23:50;;;;;;;5.32;2.00;;;;;;;4.62;88.24;99321.81;5093788;28;20043;-62
2023/10/20 12:26:21;;;;;;;8.73;2.28;;;;;;;4.64;89.09;99326.16;5082326;28;20067;-61